Time,TemperatureF,DewpointF,PressureIn,WindDirection,WindDirectionDegrees,WindSpeedMPH,WindSpeedGustMPH,Humidity,HourlyPrecipIn,Conditions,Clouds,dailyrainin,SoftwareType,DateUTC
2015-09-01 00:01:00,81.6,78.4,30.04,West,274,0.0,0.0,90,0.00,,,0.00,VWS V12.08,2015-09-01 05:01:00,
2015-09-01 00:06:00,81.4,78.2,30.04,West,274,0.0,0.0,90,0.00,,,0.00,VWS V12.08,2015-09-01 05:06:00,
2015-09-01 00:11:00,81.2,78.0,30.04,West,274,0.0,0.0,90,0.00,,,0.00,VWS V12.08,2015-09-01 05:11:00,
2015-09-01 00:16:00,81.0,77.8,30.04,West,274,0.0,0.0,90,0.00,,,0.00,VWS V12.08,2015-09-01 05:16:00,
2015-09-01 00:21:00,81.0,77.8,30.04,West,274,0.0,0.0,90,0.00,,,0.00,VWS V12.08,2015-09-01 05:21:00,
2015-09-01 00:26:00,81.2,78.0,30.04,West,274,0.0,0.0,90,0.00,,,0.00,VWS V12.08,2015-09-01 05:26:00,
2015-09-01 00:31:00,81.2,78.0,30.03,West,274,0.0,0.0,90,0.00,,,0.00,VWS V12.08,2015-09-01 05:31:00,
2015-09-01 00:36:00,81.2,78.0,30.03,West,274,0.0,0.0,90,0.00,,,0.00,VWS V12.08,2015-09-01 05:36:00,
2015-09-01 00:41:00,80.6,77.4,30.03,West,274,0.0,0.0,90,0.00,,,0.00,VWS V12.08,2015-09-01 05:41:00,
2015-09-01 00:46:00,80.6,77.4,30.03,West,274,0.0,0.0,90,0.00,,,0.00,VWS V12.08,2015-09-01 05:46:00,
2015-09-01 00:51:00,80.4,77.2,30.03,West,274,0.0,0.0,90,0.00,,,0.00,VWS V12.08,2015-09-01 05:51:00,
2015-09-01 00:56:00,80.5,77.3,30.03,NW,325,1.0,2.0,90,0.00,,,0.00,VWS V12.08,2015-09-01 05:56:00,
2015-09-01 01:01:00,80.5,77.3,30.03,NW,325,0.0,1.0,90,0.00,,,0.00,VWS V12.08,2015-09-01 06:01:00,
2015-09-01 01:06:00,80.5,77.3,30.03,NNW,328,2.0,3.0,90,0.00,,,0.00,VWS V12.08,2015-09-01 06:06:00,
2015-09-01 01:11:00,80.5,77.3,30.03,NNW,328,0.0,1.0,90,0.00,,,0.00,VWS V12.08,2015-09-01 06:11:00,
2015-09-01 01:16:00,80.5,77.3,30.02,NNW,328,1.0,2.0,90,0.00,,,0.00,VWS V12.08,2015-09-01 06:16:00,
2015-09-01 01:21:00,81.6,78.4,30.02,NNW,328,0.0,0.0,90,0.00,,,0.00,VWS V12.08,2015-09-01 06:21:00,
2015-09-01 01:26:00,81.5,78.3,30.02,NNW,329,0.0,2.0,90,0.00,,,0.00,VWS V12.08,2015-09-01 06:26:00,
2015-09-01 01:31:00,81.3,78.1,30.03,NNW,329,0.0,0.0,90,0.00,,,0.00,VWS V12.08,2015-09-01 06:31:00,
2015-09-01 01:36:00,81.3,78.1,30.03,NNW,329,2.0,2.0,90,0.00,,,0.00,VWS V12.08,2015-09-01 06:36:00,
2015-09-01 01:41:00,81.3,78.1,30.03,NNW,329,1.0,1.0,90,0.00,,,0.00,VWS V12.08,2015-09-01 06:41:00,
2015-09-01 01:46:00,81.4,78.2,30.02,NNW,330,1.0,2.0,90,0.00,,,0.00,VWS V12.08,2015-09-01 06:46:00,
2015-09-01 01:51:00,81.2,78.0,30.02,NNW,330,2.0,2.0,90,0.00,,,0.00,VWS V12.08,2015-09-01 06:51:00,
2015-09-01 01:56:00,81.2,78.0,30.02,NNW,330,1.0,4.0,90,0.00,,,0.00,VWS V12.08,2015-09-01 06:56:00,
2015-09-01 02:01:00,81.2,78.0,30.02,NNW,330,2.0,2.0,90,0.00,,,0.00,VWS V12.08,2015-09-01 07:01:00,
2015-09-01 02:06:00,81.2,78.0,30.02,NNW,330,0.0,2.0,90,0.00,,,0.00,VWS V12.08,2015-09-01 07:06:00,
2015-09-01 02:11:00,81.0,77.8,30.02,NNW,330,0.0,0.0,90,0.00,,,0.00,VWS V12.08,2015-09-01 07:11:00,
2015-09-01 02:16:00,81.0,77.8,30.02,NNE,14,0.0,0.0,90,0.00,,,0.00,VWS V12.08,2015-09-01 07:16:00,
2015-09-01 02:21:00,80.5,77.3,30.02,NNW,330,0.0,0.0,90,0.00,,,0.00,VWS V12.08,2015-09-01 07:21:00,
2015-09-01 02:26:00,80.3,77.1,30.02,NNW,330,0.0,0.0,90,0.00,,,0.00,VWS V12.08,2015-09-01 07:26:00,
2015-09-01 02:31:00,80.1,76.9,30.02,NNW,330,0.0,0.0,90,0.00,,,0.00,VWS V12.08,2015-09-01 07:31:00,
2015-09-01 02:36:00,79.7,76.5,30.02,NNW,330,0.0,0.0,90,0.00,,,0.00,VWS V12.08,2015-09-01 07:36:00,
2015-09-01 02:41:00,79.5,76.3,30.02,NNW,330,0.0,0.0,90,0.00,,,0.00,VWS V12.08,2015-09-01 07:41:00,
2015-09-01 02:46:00,79.5,76.3,30.02,NNW,330,0.0,0.0,90,0.00,,,0.00,VWS V12.08,2015-09-01 07:46:00,
2015-09-01 02:51:00,79.2,76.0,30.02,NNW,330,0.0,0.0,90,0.00,,,0.00,VWS V12.08,2015-09-01 07:51:00,
2015-09-01 02:56:00,79.2,76.0,30.02,NNW,330,1.0,2.0,90,0.00,,,0.00,VWS V12.08,2015-09-01 07:56:00,
2015-09-01 03:01:00,79.2,76.0,30.01,NNW,330,2.0,2.0,90,0.00,,,0.00,VWS V12.08,2015-09-01 08:01:00,
2015-09-01 03:06:00,79.9,76.7,30.01,NNW,330,1.0,2.0,90,0.00,,,0.00,VWS V12.08,2015-09-01 08:06:00,
2015-09-01 03:11:00,80.0,76.8,30.01,NNW,330,2.0,2.0,90,0.00,,,0.00,VWS V12.08,2015-09-01 08:11:00,
2015-09-01 03:16:00,80.3,77.1,30.01,NNW,332,2.0,3.0,90,0.00,,,0.00,VWS V12.08,2015-09-01 08:16:00,
2015-09-01 03:21:00,80.3,77.1,30.01,NNW,332,0.0,2.0,90,0.00,,,0.00,VWS V12.08,2015-09-01 08:21:00,
2015-09-01 03:26:00,80.4,77.2,30.01,NNW,332,1.0,5.0,90,0.00,,,0.00,VWS V12.08,2015-09-01 08:26:00,
2015-09-01 03:31:00,80.3,77.1,30.02,NNW,333,2.0,2.0,90,0.00,,,0.00,VWS V12.08,2015-09-01 08:31:00,
2015-09-01 03:36:00,80.3,77.1,30.02,NNW,333,2.0,2.0,90,0.00,,,0.00,VWS V12.08,2015-09-01 08:36:00,
2015-09-01 03:41:00,80.2,77.0,30.02,NNW,333,3.0,3.0,90,0.00,,,0.00,VWS V12.08,2015-09-01 08:41:00,
2015-09-01 03:46:00,80.3,77.1,30.02,NNW,333,1.0,3.0,90,0.00,,,0.00,VWS V12.08,2015-09-01 08:46:00,
2015-09-01 03:51:00,80.1,76.9,30.02,NNW,333,0.0,0.0,90,0.00,,,0.00,VWS V12.08,2015-09-01 08:51:00,
2015-09-01 03:56:00,79.8,76.6,30.02,NNW,333,0.0,0.0,90,0.00,,,0.00,VWS V12.08,2015-09-01 08:56:00,
2015-09-01 04:01:00,79.8,76.6,30.02,NNW,333,0.0,0.0,90,0.00,,,0.00,VWS V12.08,2015-09-01 09:01:00,
2015-09-01 04:06:00,79.6,76.4,30.02,NNW,333,0.0,0.0,90,0.00,,,0.00,VWS V12.08,2015-09-01 09:06:00,
2015-09-01 04:16:00,79.5,76.3,30.02,NNW,342,3.0,5.0,90,0.00,,,0.00,VWS V12.08,2015-09-01 09:16:00,
2015-09-01 04:21:00,79.4,76.2,30.02,NNW,335,5.0,5.0,90,0.00,,,0.00,VWS V12.08,2015-09-01 09:21:00,
2015-09-01 04:26:00,79.5,76.3,30.02,NNW,335,2.0,6.0,90,0.00,,,0.00,VWS V12.08,2015-09-01 09:26:00,
2015-09-01 04:31:00,79.3,76.1,30.02,NNW,335,0.0,2.0,90,0.00,,,0.00,VWS V12.08,2015-09-01 09:31:00,
2015-09-01 04:36:00,79.2,76.0,30.02,NNW,336,2.0,3.0,90,0.00,,,0.00,VWS V12.08,2015-09-01 09:36:00,
2015-09-01 04:41:00,79.2,76.0,30.02,NNW,336,2.0,6.0,90,0.00,,,0.00,VWS V12.08,2015-09-01 09:41:00,
2015-09-01 04:46:00,79.1,75.9,30.03,NNW,337,3.0,6.0,90,0.00,,,0.00,VWS V12.08,2015-09-01 09:46:00,
2015-09-01 04:51:00,79.1,75.9,30.03,NNW,342,2.0,2.0,90,0.00,,,0.00,VWS V12.08,2015-09-01 09:51:00,
2015-09-01 04:56:00,79.2,76.0,30.03,NNW,343,2.0,2.0,90,0.00,,,0.00,VWS V12.08,2015-09-01 09:56:00,
2015-09-01 05:01:00,79.2,76.0,30.04,NNW,343,1.0,1.0,90,0.00,,,0.00,VWS V12.08,2015-09-01 10:01:00,
2015-09-01 05:06:00,79.2,76.0,30.04,NNW,344,1.0,3.0,90,0.00,,,0.00,VWS V12.08,2015-09-01 10:06:00,
2015-09-01 05:11:00,79.2,76.0,30.04,NNW,344,1.0,3.0,90,0.00,,,0.00,VWS V12.08,2015-09-01 10:11:00,
2015-09-01 05:16:00,79.2,76.0,30.04,NNW,344,2.0,4.0,90,0.00,,,0.00,VWS V12.08,2015-09-01 10:16:00,
2015-09-01 05:21:00,79.2,76.0,30.04,NNW,339,3.0,3.0,90,0.00,,,0.00,VWS V12.08,2015-09-01 10:21:00,
2015-09-01 05:26:00,78.9,75.7,30.04,NNW,340,3.0,3.0,90,0.00,,,0.00,VWS V12.08,2015-09-01 10:26:00,
2015-09-01 05:31:00,78.9,75.7,30.04,NNW,340,2.0,2.0,90,0.00,,,0.00,VWS V12.08,2015-09-01 10:31:00,
2015-09-01 05:36:00,78.9,75.7,30.04,North,357,4.0,7.0,90,0.00,,,0.00,VWS V12.08,2015-09-01 10:36:00,
2015-09-01 05:41:00,78.9,75.7,30.04,North,0,1.0,1.0,90,0.00,,,0.00,VWS V12.08,2015-09-01 10:41:00,
2015-09-01 05:46:00,78.9,75.7,30.04,North,10,2.0,6.0,90,0.00,,,0.00,VWS V12.08,2015-09-01 10:46:00,
2015-09-01 05:51:00,79.0,75.8,30.04,North,3,1.0,1.0,90,0.00,,,0.00,VWS V12.08,2015-09-01 10:51:00,
2015-09-01 05:56:00,78.9,75.7,30.04,North,0,3.0,6.0,90,0.00,,,0.00,VWS V12.08,2015-09-01 10:56:00,
2015-09-01 06:01:00,79.0,75.8,30.05,North,0,2.0,2.0,90,0.00,,,0.00,VWS V12.08,2015-09-01 11:01:00,
2015-09-01 06:06:00,79.0,75.8,30.05,North,0,0.0,3.0,90,0.00,,,0.00,VWS V12.08,2015-09-01 11:06:00,
2015-09-01 06:11:00,79.0,75.8,30.05,North,0,3.0,3.0,90,0.00,,,0.00,VWS V12.08,2015-09-01 11:11:00,
2015-09-01 06:16:00,78.6,75.4,30.05,NNE,21,2.0,3.0,90,0.00,,,0.00,VWS V12.08,2015-09-01 11:16:00,
2015-09-01 06:21:00,78.6,75.4,30.05,NNE,21,0.0,2.0,90,0.00,,,0.00,VWS V12.08,2015-09-01 11:21:00,
2015-09-01 06:27:00,78.5,75.3,30.05,NNE,21,2.0,3.0,90,0.00,,,0.00,VWS V12.08,2015-09-01 11:27:00,
2015-09-01 06:32:00,78.4,75.2,30.05,NNE,18,3.0,3.0,90,0.00,,,0.00,VWS V12.08,2015-09-01 11:32:00,
2015-09-01 06:37:00,78.4,75.2,30.05,NNE,13,2.0,3.0,90,0.00,,,0.00,VWS V12.08,2015-09-01 11:37:00,
2015-09-01 06:42:00,78.5,75.3,30.05,NNE,16,4.0,4.0,90,0.00,,,0.00,VWS V12.08,2015-09-01 11:42:00,
2015-09-01 06:47:00,78.6,75.4,30.05,NNE,32,2.0,4.0,90,0.00,,,0.00,VWS V12.08,2015-09-01 11:47:00,
2015-09-01 06:57:00,78.8,75.6,30.05,NNE,30,2.0,5.0,90,0.00,,,0.00,VWS V12.08,2015-09-01 11:57:00,
2015-09-01 07:02:00,78.8,75.6,30.06,North,0,3.0,3.0,90,0.00,,,0.00,VWS V12.08,2015-09-01 12:02:00,
2015-09-01 07:07:00,78.8,75.6,30.06,North,0,2.0,6.0,90,0.00,,,0.00,VWS V12.08,2015-09-01 12:07:00,
2015-09-01 07:12:00,79.0,75.8,30.06,North,7,2.0,2.0,90,0.00,,,0.00,VWS V12.08,2015-09-01 12:12:00,
2015-09-01 07:17:00,78.9,75.7,30.06,NNE,27,0.0,5.0,90,0.00,,,0.00,VWS V12.08,2015-09-01 12:17:00,
2015-09-01 07:22:00,78.9,75.7,30.06,North,11,2.0,5.0,90,0.00,,,0.00,VWS V12.08,2015-09-01 12:22:00,
2015-09-01 07:27:00,78.9,75.7,30.06,North,357,2.0,5.0,90,0.00,,,0.00,VWS V12.08,2015-09-01 12:27:00,
2015-09-01 07:32:00,79.3,76.1,30.06,North,0,6.0,6.0,90,0.00,,,0.00,VWS V12.08,2015-09-01 12:32:00,
2015-09-01 07:37:00,79.4,76.2,30.06,North,0,1.0,7.0,90,0.00,,,0.00,VWS V12.08,2015-09-01 12:37:00,
2015-09-01 07:42:00,79.5,76.3,30.06,NNE,21,3.0,3.0,90,0.00,,,0.00,VWS V12.08,2015-09-01 12:42:00,
2015-09-01 07:47:00,79.5,76.3,30.06,NNE,23,1.0,5.0,90,0.00,,,0.00,VWS V12.08,2015-09-01 12:47:00,
2015-09-01 07:52:00,79.7,76.5,30.06,NNE,21,5.0,5.0,90,0.00,,,0.00,VWS V12.08,2015-09-01 12:52:00,
2015-09-01 07:57:00,79.9,76.7,30.06,NE,37,3.0,5.0,90,0.00,,,0.00,VWS V12.08,2015-09-01 12:57:00,
2015-09-01 08:02:00,79.9,76.7,30.06,NNE,13,2.0,2.0,90,0.00,,,0.00,VWS V12.08,2015-09-01 13:02:00,
2015-09-01 08:07:00,79.9,76.7,30.06,North,0,3.0,6.0,90,0.00,,,0.00,VWS V12.08,2015-09-01 13:07:00,
2015-09-01 08:12:00,80.1,76.9,30.06,NNE,17,0.0,0.0,90,0.00,,,0.00,VWS V12.08,2015-09-01 13:12:00,
2015-09-01 08:17:00,80.2,77.0,30.06,NE,38,1.0,7.0,90,0.00,,,0.00,VWS V12.08,2015-09-01 13:17:00,
2015-09-01 08:22:00,80.4,77.2,30.06,NNE,32,2.0,2.0,90,0.00,,,0.00,VWS V12.08,2015-09-01 13:22:00,
2015-09-01 08:27:00,80.8,77.6,30.06,NE,37,0.0,2.0,90,0.00,,,0.00,VWS V12.08,2015-09-01 13:27:00,
2015-09-01 08:32:00,80.7,77.5,30.06,ENE,61,0.0,0.0,90,0.00,,,0.00,VWS V12.08,2015-09-01 13:32:00,
2015-09-01 08:37:00,80.9,77.7,30.06,NE,48,3.0,3.0,90,0.00,,,0.00,VWS V12.08,2015-09-01 13:37:00,
2015-09-01 08:42:00,81.1,77.9,30.06,NNE,28,0.0,2.0,90,0.00,,,0.00,VWS V12.08,2015-09-01 13:42:00,
2015-09-01 08:47:00,81.2,78.0,30.06,ENE,58,2.0,2.0,90,0.00,,,0.00,VWS V12.08,2015-09-01 13:47:00,
2015-09-01 08:52:00,81.3,78.1,30.06,ENE,64,1.0,5.0,90,0.00,,,0.00,VWS V12.08,2015-09-01 13:52:00,
2015-09-01 08:57:00,81.3,78.1,30.06,NE,52,4.0,5.0,90,0.00,,,0.00,VWS V12.08,2015-09-01 13:57:00,
2015-09-01 09:02:00,81.8,78.6,30.06,NE,54,5.0,5.0,90,0.00,,,0.00,VWS V12.08,2015-09-01 14:02:00,
2015-09-01 09:07:00,81.9,78.7,30.06,NE,44,2.0,5.0,90,0.00,,,0.00,VWS V12.08,2015-09-01 14:07:00,
2015-09-01 09:12:00,81.9,78.7,30.06,NE,44,2.0,3.0,90,0.00,,,0.00,VWS V12.08,2015-09-01 14:12:00,
2015-09-01 09:17:00,81.9,78.7,30.06,NE,47,2.0,3.0,90,0.00,,,0.00,VWS V12.08,2015-09-01 14:17:00,
2015-09-01 09:22:00,81.9,78.7,30.06,NE,47,1.0,1.0,90,0.00,,,0.00,VWS V12.08,2015-09-01 14:22:00,
2015-09-01 09:27:00,81.9,78.7,30.06,NE,47,1.0,1.0,90,0.00,,,0.00,VWS V12.08,2015-09-01 14:27:00,
2015-09-01 09:32:00,81.9,78.7,30.06,NE,51,1.0,1.0,90,0.00,,,0.00,VWS V12.08,2015-09-01 14:32:00,
2015-09-01 09:37:00,81.9,78.7,30.06,NE,51,1.0,1.0,90,0.00,,,0.00,VWS V12.08,2015-09-01 14:37:00,